createdAt,value
2018-12-29T00:01:39.063Z,1.50
2018-12-29T00:04:07.274Z,1.50
2018-12-29T00:06:35.498Z,1.40
2018-12-29T00:09:05.285Z,1.50
2018-12-29T00:11:33.515Z,1.50
2018-12-29T00:14:01.819Z,1.40
2018-12-29T00:16:30.760Z,1.40
2018-12-29T00:18:59.045Z,1.40
2018-12-29T00:21:27.893Z,1.50
2018-12-29T00:23:56.073Z,1.60
2018-12-29T00:26:24.564Z,1.60
2018-12-29T00:28:52.883Z,1.60
2018-12-29T00:31:21.187Z,1.70
2018-12-29T00:33:49.498Z,1.70
2018-12-29T00:36:18.411Z,1.70
2018-12-29T00:38:46.700Z,1.80
2018-12-29T00:41:15.529Z,1.70
2018-12-29T00:43:43.771Z,1.70
2018-12-29T00:46:12.161Z,1.70
2018-12-29T00:48:40.462Z,1.60
2018-12-29T00:51:08.688Z,1.70
2018-12-29T00:53:36.978Z,1.70
2018-12-29T00:56:05.252Z,1.70
2018-12-29T00:58:34.085Z,1.60
2018-12-29T01:01:02.358Z,1.60
2018-12-29T01:03:30.548Z,1.70
2018-12-29T01:05:58.756Z,1.80
2018-12-29T01:08:27.693Z,1.80
2018-12-29T01:10:56.011Z,1.80
2018-12-29T01:13:24.537Z,1.80
2018-12-29T01:15:53.062Z,1.80
2018-12-29T01:18:21.741Z,1.90
2018-12-29T01:20:49.942Z,1.80
2018-12-29T01:23:18.138Z,1.60
2018-12-29T01:25:46.484Z,1.60
2018-12-29T01:28:15.661Z,1.70
2018-12-29T01:30:43.906Z,1.70
2018-12-29T01:33:12.134Z,1.60
2018-12-29T01:35:41.621Z,1.70
2018-12-29T01:38:10.495Z,1.70
2018-12-29T01:40:38.772Z,1.70
2018-12-29T01:43:07.061Z,1.70
2018-12-29T01:45:37.022Z,1.70
2018-12-29T01:48:06.054Z,1.70
2018-12-29T01:50:34.334Z,1.70
2018-12-29T01:53:03.222Z,1.70
2018-12-29T01:55:32.133Z,1.80
2018-12-29T01:58:01.838Z,1.80
2018-12-29T02:00:30.523Z,1.90
2018-12-29T02:02:58.783Z,1.90
2018-12-29T02:05:27.094Z,1.80
2018-12-29T02:07:55.357Z,1.80
2018-12-29T02:10:23.562Z,1.80
2018-12-29T02:12:51.814Z,1.80
2018-12-29T02:15:24.740Z,1.70
2018-12-29T02:17:50.190Z,1.70
2018-12-29T02:20:18.397Z,1.80
2018-12-29T02:22:46.617Z,1.70
2018-12-29T02:25:14.905Z,1.70
2018-12-29T02:27:43.445Z,1.80
2018-12-29T02:30:12.689Z,1.60
2018-12-29T02:32:41.264Z,1.50
2018-12-29T02:35:09.514Z,1.40
2018-12-29T02:37:37.744Z,1.40
2018-12-29T02:40:06.050Z,1.30
2018-12-29T02:42:34.265Z,1.40
2018-12-29T02:45:02.554Z,1.40
2018-12-29T02:47:30.721Z,1.50
2018-12-29T02:49:59.817Z,1.50
2018-12-29T02:52:28.093Z,1.50
2018-12-29T02:54:56.805Z,1.50
2018-12-29T02:57:25.085Z,1.50
2018-12-29T02:59:54.004Z,1.40
2018-12-29T03:02:22.241Z,1.50
2018-12-29T03:04:51.158Z,1.60
2018-12-29T03:07:19.352Z,1.60
2018-12-29T03:09:47.634Z,1.40
2018-12-29T03:12:16.306Z,1.50
2018-12-29T03:14:44.469Z,1.40
2018-12-29T03:17:12.689Z,1.40
2018-12-29T03:19:40.922Z,1.40
2018-12-29T03:22:09.160Z,1.40
2018-12-29T03:24:37.380Z,1.50
2018-12-29T03:27:05.984Z,1.50
2018-12-29T03:29:34.579Z,1.50
2018-12-29T03:32:02.770Z,1.60
2018-12-29T03:34:32.501Z,1.50
2018-12-29T03:37:01.704Z,1.50
2018-12-29T03:39:29.957Z,1.70
2018-12-29T03:41:58.224Z,1.60
2018-12-29T03:44:26.761Z,1.60
2018-12-29T03:46:55.016Z,1.60
2018-12-29T03:49:23.285Z,1.60
2018-12-29T03:51:52.601Z,1.60
2018-12-29T03:54:21.081Z,1.60
2018-12-29T03:56:49.298Z,1.60
2018-12-29T03:59:17.791Z,1.60
2018-12-29T04:04:49.487Z,1.50
2018-12-29T04:07:17.638Z,1.50
2018-12-29T04:09:46.390Z,1.40
2018-12-29T04:12:18.773Z,1.30
2018-12-29T04:14:47.102Z,1.40
2018-12-29T04:17:15.283Z,1.40
2018-12-29T04:19:43.402Z,1.20
2018-12-29T04:22:11.563Z,1.30
2018-12-29T04:24:40.300Z,1.20
2018-12-29T04:27:08.559Z,1.30
2018-12-29T04:29:37.335Z,1.30
2018-12-29T04:32:05.494Z,1.40
2018-12-29T04:34:33.786Z,1.40
2018-12-29T04:37:02.045Z,1.50
2018-12-29T04:39:30.310Z,1.50
2018-12-29T04:41:58.516Z,1.50
2018-12-29T04:44:26.707Z,1.40
2018-12-29T04:46:54.890Z,1.30
2018-12-29T04:49:23.089Z,1.20
2018-12-29T04:51:51.285Z,1.20
2018-12-29T04:54:19.541Z,1.30
2018-12-29T04:56:47.825Z,1.40
2018-12-29T04:59:16.041Z,1.50
2018-12-29T05:01:44.331Z,1.50
2018-12-29T05:04:13.149Z,1.40
2018-12-29T05:06:41.417Z,1.50
2018-12-29T05:09:09.624Z,1.50
2018-12-29T05:11:38.545Z,1.60
2018-12-29T05:14:06.749Z,1.50
2018-12-29T05:16:35.038Z,1.40
2018-12-29T05:19:03.273Z,1.40
2018-12-29T05:21:32.105Z,1.50
2018-12-29T05:24:01.172Z,1.50
2018-12-29T05:26:29.409Z,1.40
2018-12-29T05:28:57.630Z,1.30
2018-12-29T05:31:25.853Z,1.30
2018-12-29T05:33:54.086Z,1.20
2018-12-29T05:36:22.317Z,1.30
2018-12-29T05:38:50.569Z,1.40
2018-12-29T05:41:18.762Z,1.40
2018-12-29T05:43:47.009Z,1.50
2018-12-29T05:46:20.344Z,1.50
2018-12-29T05:48:43.505Z,1.40
2018-12-29T05:51:11.725Z,1.40
2018-12-29T05:53:39.942Z,1.40
2018-12-29T05:56:08.146Z,1.40
2018-12-29T05:58:36.374Z,1.40
2018-12-29T06:01:04.621Z,1.40
2018-12-29T06:03:32.845Z,1.40
2018-12-29T06:06:02.016Z,1.40
2018-12-29T06:08:30.907Z,1.50
2018-12-29T06:10:59.146Z,1.60
2018-12-29T06:13:27.398Z,1.50
2018-12-29T06:15:55.649Z,1.50
2018-12-29T06:18:23.899Z,1.50
2018-12-29T06:20:52.166Z,1.40
2018-12-29T06:23:20.389Z,1.50
2018-12-29T06:25:48.606Z,1.40
2018-12-29T06:28:17.187Z,1.40
2018-12-29T06:30:45.398Z,1.30
2018-12-29T06:33:13.619Z,1.40
2018-12-29T06:35:41.805Z,1.40
2018-12-29T06:38:10.049Z,1.50
2018-12-29T06:40:38.292Z,1.50
2018-12-29T06:43:06.613Z,1.50
2018-12-29T06:45:35.497Z,1.50
2018-12-29T06:48:03.721Z,1.50
2018-12-29T06:50:31.957Z,1.50
2018-12-29T06:53:00.197Z,1.50
2018-12-29T06:55:28.471Z,1.40
2018-12-29T06:57:56.737Z,1.50
2018-12-29T07:00:25.664Z,1.30
2018-12-29T07:02:53.882Z,1.30
2018-12-29T07:05:22.894Z,1.30
2018-12-29T07:07:51.189Z,1.50
2018-12-29T07:10:19.421Z,1.50
2018-12-29T07:12:47.712Z,1.50
2018-12-29T07:15:16.275Z,1.60
2018-12-29T07:17:44.498Z,1.70
2018-12-29T07:20:12.756Z,1.50
2018-12-29T07:22:40.985Z,1.40
2018-12-29T07:25:09.245Z,1.40
2018-12-29T07:27:37.504Z,1.40
2018-12-29T07:30:06.544Z,1.30
2018-12-29T07:32:34.765Z,1.40
2018-12-29T07:35:03.001Z,1.40
2018-12-29T07:37:31.259Z,1.40
2018-12-29T07:39:59.505Z,1.60
2018-12-29T07:42:27.746Z,1.70
2018-12-29T07:44:55.958Z,1.70
2018-12-29T07:47:24.190Z,1.70
2018-12-29T07:49:52.438Z,1.70
2018-12-29T07:52:20.710Z,1.70
2018-12-29T07:54:48.946Z,1.70
2018-12-29T07:57:17.270Z,1.70
2018-12-29T07:59:45.493Z,1.60
2018-12-29T08:02:14.698Z,1.60
2018-12-29T08:04:42.909Z,1.70
2018-12-29T08:07:11.143Z,1.70
2018-12-29T08:09:40.233Z,1.70
2018-12-29T08:12:08.447Z,1.80
2018-12-29T08:14:36.655Z,1.80
2018-12-29T08:17:04.828Z,1.70
2018-12-29T08:19:33.098Z,1.80
2018-12-29T08:22:01.321Z,1.80
2018-12-29T08:24:30.163Z,1.90
2018-12-29T08:26:58.407Z,1.90
2018-12-29T08:29:27.127Z,1.90
2018-12-29T08:31:55.414Z,1.90
2018-12-29T08:34:23.645Z,2.00
2018-12-29T08:36:51.885Z,1.90
2018-12-29T08:39:20.152Z,1.90
2018-12-29T08:41:48.440Z,1.80
2018-12-29T08:44:16.946Z,1.90
2018-12-29T08:46:45.176Z,1.80
2018-12-29T08:49:13.408Z,1.80
2018-12-29T08:51:41.627Z,1.90
2018-12-29T08:54:10.037Z,1.90
2018-12-29T08:56:38.206Z,2.00
2018-12-29T08:59:06.395Z,2.00
2018-12-29T09:01:34.796Z,2.10
2018-12-29T09:04:02.981Z,2.10
2018-12-29T09:06:31.250Z,2.10
2018-12-29T09:08:59.501Z,2.20
2018-12-29T09:11:27.763Z,2.30
2018-12-29T09:13:56.010Z,2.30
2018-12-29T09:16:24.250Z,2.30
2018-12-29T09:18:52.517Z,2.20
2018-12-29T09:21:20.765Z,2.30
2018-12-29T09:23:49.022Z,2.20
2018-12-29T09:26:17.267Z,2.30
2018-12-29T09:28:45.477Z,2.30
2018-12-29T09:31:13.792Z,2.30
2018-12-29T09:33:41.952Z,2.30
2018-12-29T09:36:10.158Z,2.40
2018-12-29T09:38:38.464Z,2.40
2018-12-29T09:41:06.691Z,2.50
2018-12-29T09:43:34.905Z,2.60
2018-12-29T09:46:03.202Z,2.60
2018-12-29T09:48:32.397Z,2.60
2018-12-29T09:51:00.625Z,2.50
2018-12-29T09:53:28.893Z,2.60
2018-12-29T09:55:57.131Z,2.60
2018-12-29T09:58:25.382Z,2.60
2018-12-29T10:00:53.624Z,2.70
2018-12-29T10:03:21.950Z,2.70
2018-12-29T10:05:50.266Z,2.80
2018-12-29T10:08:19.377Z,2.90
2018-12-29T10:10:47.615Z,2.80
2018-12-29T10:13:15.842Z,2.90
2018-12-29T10:15:44.081Z,2.80
2018-12-29T10:18:12.398Z,2.90
2018-12-29T10:20:40.678Z,2.80
2018-12-29T10:23:08.942Z,2.80
2018-12-29T10:25:37.491Z,2.70
2018-12-29T10:28:06.314Z,2.80
2018-12-29T10:30:34.583Z,2.80
2018-12-29T10:33:02.856Z,2.70
2018-12-29T10:35:31.183Z,2.80
2018-12-29T10:37:59.341Z,2.90
2018-12-29T10:40:27.575Z,3.00
2018-12-29T10:42:55.777Z,2.90
2018-12-29T10:45:24.022Z,2.90
2018-12-29T10:47:52.258Z,3.00
2018-12-29T10:50:20.621Z,3.20
2018-12-29T10:52:48.890Z,3.30
2018-12-29T10:55:17.079Z,3.50
2018-12-29T10:57:45.253Z,3.40
2018-12-29T11:00:13.802Z,3.40
2018-12-29T11:02:42.026Z,3.50
2018-12-29T11:05:10.271Z,3.50
2018-12-29T11:07:38.594Z,3.60
2018-12-29T11:10:06.800Z,3.50
2018-12-29T11:12:35.008Z,3.60
2018-12-29T11:15:03.231Z,3.40
2018-12-29T11:17:31.445Z,3.50
2018-12-29T11:20:00.680Z,3.60
2018-12-29T11:22:29.624Z,3.60
2018-12-29T11:24:57.877Z,3.60
2018-12-29T11:27:26.218Z,3.60
2018-12-29T11:29:54.522Z,3.60
2018-12-29T11:32:22.733Z,3.60
2018-12-29T11:34:51.183Z,3.50
2018-12-29T11:37:20.053Z,3.40
2018-12-29T11:39:48.328Z,3.50
2018-12-29T11:42:16.537Z,3.60
2018-12-29T11:44:44.777Z,3.60
2018-12-29T11:47:13.042Z,3.70
2018-12-29T11:49:41.251Z,3.80
2018-12-29T11:52:10.096Z,3.90
2018-12-29T11:54:39.180Z,3.90
2018-12-29T11:57:07.952Z,3.80
2018-12-29T11:59:36.187Z,3.90
2018-12-29T12:02:04.432Z,4.00
2018-12-29T12:04:32.679Z,3.90
2018-12-29T12:07:00.933Z,4.00
2018-12-29T12:09:30.329Z,4.10
2018-12-29T12:11:57.430Z,4.10
2018-12-29T12:14:25.686Z,4.20
2018-12-29T12:16:54.019Z,4.20
2018-12-29T12:19:22.469Z,4.10
2018-12-29T12:21:50.703Z,4.10
2018-12-29T12:24:18.916Z,4.10
2018-12-29T12:26:47.126Z,4.10
2018-12-29T12:29:15.337Z,4.10
2018-12-29T12:31:43.578Z,4.00
2018-12-29T12:34:11.821Z,4.10
2018-12-29T12:36:40.101Z,4.10
2018-12-29T12:39:08.413Z,4.10
2018-12-29T12:41:36.641Z,4.00
2018-12-29T12:44:04.837Z,4.00
2018-12-29T12:46:33.038Z,4.00
2018-12-29T12:49:01.288Z,4.10
2018-12-29T12:51:30.298Z,4.10
2018-12-29T12:53:58.563Z,4.20
2018-12-29T12:56:26.813Z,4.20
2018-12-29T12:58:55.071Z,4.10
2018-12-29T13:01:23.327Z,4.10
2018-12-29T13:03:51.569Z,4.20
2018-12-29T13:06:19.802Z,4.10
2018-12-29T13:08:48.058Z,4.20
2018-12-29T13:11:16.937Z,4.10
2018-12-29T13:13:45.213Z,4.10
2018-12-29T13:16:13.465Z,4.20
2018-12-29T13:18:41.758Z,4.10
2018-12-29T13:21:10.060Z,4.00
2018-12-29T13:23:39.936Z,4.00
2018-12-29T13:26:08.181Z,4.10
2018-12-29T13:28:36.633Z,4.10
2018-12-29T13:31:05.185Z,4.20
2018-12-29T13:33:33.393Z,4.30
2018-12-29T13:36:01.682Z,4.30
2018-12-29T13:38:30.420Z,4.20
2018-12-29T13:40:58.697Z,4.00
2018-12-29T13:43:26.926Z,4.00
2018-12-29T13:45:55.161Z,4.10
2018-12-29T13:48:23.650Z,4.10
2018-12-29T13:50:52.869Z,4.00
2018-12-29T13:53:22.590Z,4.20
2018-12-29T13:55:50.818Z,4.30
2018-12-29T13:58:19.101Z,4.20
2018-12-29T14:00:47.361Z,3.90
2018-12-29T14:03:15.544Z,3.80
2018-12-29T14:05:43.797Z,3.90
2018-12-29T14:08:12.063Z,4.00
2018-12-29T14:10:40.270Z,4.10
2018-12-29T14:13:08.494Z,4.00
2018-12-29T14:15:36.717Z,3.80
2018-12-29T14:18:04.971Z,3.70
2018-12-29T14:20:33.264Z,3.70
2018-12-29T14:23:01.554Z,3.70
2018-12-29T14:25:29.789Z,3.80
2018-12-29T14:27:58.119Z,3.70
2018-12-29T14:30:26.385Z,3.70
2018-12-29T14:32:54.728Z,3.60
2018-12-29T14:35:23.002Z,3.60
2018-12-29T14:37:51.256Z,3.60
2018-12-29T14:40:19.484Z,3.50
2018-12-29T14:42:47.830Z,3.40
2018-12-29T14:45:16.103Z,3.30
2018-12-29T14:47:44.334Z,3.30
2018-12-29T14:50:12.609Z,3.40
2018-12-29T14:52:40.853Z,3.30
2018-12-29T14:55:09.142Z,3.30
2018-12-29T14:57:37.415Z,3.30
2018-12-29T15:00:05.745Z,3.30
2018-12-29T15:02:34.340Z,3.30
2018-12-29T15:05:03.261Z,3.30
2018-12-29T15:07:31.542Z,3.30
2018-12-29T15:09:59.777Z,3.30
2018-12-29T15:12:28.009Z,3.30
2018-12-29T15:14:56.250Z,3.40
2018-12-29T15:17:24.486Z,3.30
2018-12-29T15:19:52.750Z,3.40
2018-12-29T15:22:21.737Z,3.30
2018-12-29T15:24:49.956Z,3.40
2018-12-29T15:27:18.248Z,3.40
2018-12-29T15:29:46.503Z,3.40
2018-12-29T15:32:14.740Z,3.40
2018-12-29T15:34:43.005Z,3.40
2018-12-29T15:37:11.238Z,3.40
2018-12-29T15:39:39.520Z,3.40
2018-12-29T15:42:07.757Z,3.40
2018-12-29T15:44:35.999Z,3.50
2018-12-29T15:47:04.236Z,3.50
2018-12-29T15:49:32.493Z,3.40
2018-12-29T15:52:00.717Z,3.40
2018-12-29T15:54:29.037Z,3.40
2018-12-29T15:56:57.260Z,3.50
2018-12-29T15:59:25.502Z,3.50
2018-12-29T16:01:53.844Z,3.50
2018-12-29T16:04:22.018Z,3.50
2018-12-29T16:06:50.857Z,3.50
2018-12-29T16:09:19.101Z,3.40
2018-12-29T16:11:48.509Z,3.30
2018-12-29T16:14:16.740Z,3.30
2018-12-29T16:16:45.976Z,3.30
2018-12-29T16:19:14.198Z,3.20
2018-12-29T16:21:42.431Z,3.20
2018-12-29T16:24:10.684Z,3.20
2018-12-29T16:26:38.881Z,3.20
2018-12-29T16:29:07.951Z,3.20
2018-12-29T16:31:36.179Z,3.20
2018-12-29T16:34:04.463Z,3.20
2018-12-29T16:36:32.653Z,3.20
2018-12-29T16:39:00.827Z,3.20
2018-12-29T16:41:29.059Z,3.30
2018-12-29T16:43:57.293Z,3.30
2018-12-29T16:46:25.583Z,3.30
2018-12-29T16:48:53.801Z,3.30
2018-12-29T16:51:22.183Z,3.30
2018-12-29T16:53:50.417Z,3.30
2018-12-29T16:56:19.290Z,3.40
2018-12-29T16:58:47.506Z,3.40
2018-12-29T17:01:15.773Z,3.40
2018-12-29T17:03:43.998Z,3.40
2018-12-29T17:06:12.297Z,3.40
2018-12-29T17:08:40.558Z,3.40
2018-12-29T17:11:08.801Z,3.40
2018-12-29T17:13:37.091Z,3.40
2018-12-29T17:16:05.653Z,3.40
2018-12-29T17:18:33.876Z,3.50
2018-12-29T17:21:02.212Z,3.40
2018-12-29T17:23:30.445Z,3.40
2018-12-29T17:25:58.668Z,3.40
2018-12-29T17:28:27.888Z,3.50
2018-12-29T17:30:57.644Z,3.40
2018-12-29T17:33:25.859Z,3.40
2018-12-29T17:35:54.097Z,3.50
2018-12-29T17:38:22.321Z,3.40
2018-12-29T17:40:50.632Z,3.40
2018-12-29T17:43:18.876Z,3.40
2018-12-29T17:45:47.161Z,3.40
2018-12-29T17:48:15.488Z,3.40
2018-12-29T17:50:43.743Z,3.40
2018-12-29T17:53:12.048Z,3.40
2018-12-29T17:55:40.285Z,3.40
2018-12-29T17:58:08.520Z,3.50
2018-12-29T18:00:36.801Z,3.40
2018-12-29T18:03:05.006Z,3.50
2018-12-29T18:05:33.613Z,3.50
2018-12-29T18:08:01.922Z,3.50
2018-12-29T18:10:30.191Z,3.50
2018-12-29T18:12:58.443Z,3.50
2018-12-29T18:15:26.631Z,3.50
2018-12-29T18:17:54.908Z,3.40
2018-12-29T18:20:23.155Z,3.40
2018-12-29T18:22:51.421Z,3.30
2018-12-29T18:25:20.031Z,3.30
2018-12-29T18:27:48.401Z,3.30
2018-12-29T18:30:17.492Z,3.20
2018-12-29T18:32:45.731Z,3.20
2018-12-29T18:35:13.951Z,3.20
2018-12-29T18:37:42.158Z,3.20
2018-12-29T18:40:10.447Z,3.20
2018-12-29T18:42:38.640Z,3.20
2018-12-29T18:45:06.955Z,3.20
2018-12-29T18:47:35.196Z,3.20
2018-12-29T18:50:05.496Z,3.20
2018-12-29T18:52:33.718Z,3.20
2018-12-29T18:55:02.127Z,3.10
2018-12-29T18:57:30.338Z,3.20
2018-12-29T18:59:58.596Z,3.20
2018-12-29T19:02:26.849Z,3.20
2018-12-29T19:04:55.295Z,3.20
2018-12-29T19:07:23.973Z,3.20
2018-12-29T19:09:52.193Z,3.30
2018-12-29T19:12:21.066Z,3.30
2018-12-29T19:14:49.326Z,3.30
2018-12-29T19:17:17.661Z,3.30
2018-12-29T19:19:46.481Z,3.30
2018-12-29T19:22:14.165Z,3.30
2018-12-29T19:24:42.599Z,3.30
2018-12-29T19:27:11.577Z,3.40
2018-12-29T19:29:39.796Z,3.40
2018-12-29T19:32:08.042Z,3.40
2018-12-29T19:34:36.333Z,3.30
2018-12-29T19:37:04.554Z,3.30
2018-12-29T19:39:32.782Z,3.30
2018-12-29T19:42:01.053Z,3.30
2018-12-29T19:44:29.307Z,3.30
2018-12-29T19:46:57.525Z,3.30
2018-12-29T19:49:26.177Z,3.30
2018-12-29T19:51:54.361Z,3.30
2018-12-29T19:54:23.288Z,3.30
2018-12-29T19:56:52.461Z,3.40
2018-12-29T19:59:20.902Z,3.40
2018-12-29T20:01:49.127Z,3.40
2018-12-29T20:04:17.814Z,3.40
2018-12-29T20:06:46.100Z,3.40
2018-12-29T20:09:15.182Z,3.40
2018-12-29T20:11:44.006Z,3.40
2018-12-29T20:14:12.245Z,3.40
2018-12-29T20:16:40.465Z,3.40
2018-12-29T20:19:08.730Z,3.30
2018-12-29T20:21:37.880Z,3.40
2018-12-29T20:24:07.096Z,3.40
2018-12-29T20:26:34.402Z,3.40
2018-12-29T20:29:02.648Z,3.40
2018-12-29T20:31:30.924Z,3.40
2018-12-29T20:33:59.315Z,3.40
2018-12-29T20:36:27.660Z,3.40
2018-12-29T20:38:56.634Z,3.40
2018-12-29T20:41:25.137Z,3.40
2018-12-29T20:43:53.396Z,3.40
2018-12-29T20:46:21.587Z,3.40
2018-12-29T20:48:50.807Z,3.40
2018-12-29T20:51:19.165Z,3.50
2018-12-29T20:53:47.837Z,3.50
2018-12-29T20:56:16.081Z,3.50
2018-12-29T20:58:44.400Z,3.50
2018-12-29T21:01:12.887Z,3.50
2018-12-29T21:03:41.609Z,3.60
2018-12-29T21:06:09.432Z,3.60
2018-12-29T21:08:37.731Z,3.60
2018-12-29T21:11:05.934Z,3.60
2018-12-29T21:13:34.777Z,3.50
2018-12-29T21:16:03.010Z,3.60
2018-12-29T21:18:31.246Z,3.60
2018-12-29T21:21:00.540Z,3.60
2018-12-29T21:23:28.772Z,3.60
2018-12-29T21:25:56.952Z,3.70
2018-12-29T21:28:26.187Z,3.70
2018-12-29T21:30:56.038Z,3.60
2018-12-29T21:33:22.670Z,3.60
2018-12-29T21:35:50.893Z,3.60
2018-12-29T21:38:19.107Z,3.60
2018-12-29T21:40:47.382Z,3.70
2018-12-29T21:43:15.605Z,3.70
2018-12-29T21:45:44.081Z,3.60
2018-12-29T21:48:12.319Z,3.70
2018-12-29T21:50:40.541Z,3.70
2018-12-29T21:53:08.781Z,3.70
2018-12-29T21:55:36.988Z,3.70
2018-12-29T21:58:05.951Z,3.70
2018-12-29T22:00:34.209Z,3.80
2018-12-29T22:03:02.454Z,3.80
2018-12-29T22:05:30.722Z,3.70
2018-12-29T22:07:59.898Z,3.80
2018-12-29T22:10:29.719Z,3.80
2018-12-29T22:12:58.000Z,3.80
2018-12-29T22:15:27.189Z,3.90
2018-12-29T22:17:55.426Z,3.90
2018-12-29T22:20:23.658Z,3.90
2018-12-29T22:22:52.018Z,3.90
2018-12-29T22:25:20.557Z,3.90
2018-12-29T22:27:48.777Z,3.90
2018-12-29T22:30:17.116Z,3.90
2018-12-29T22:32:45.636Z,3.90
2018-12-29T22:35:14.840Z,4.00
2018-12-29T22:37:43.493Z,4.00
2018-12-29T22:40:11.790Z,4.00
2018-12-29T22:42:40.036Z,4.10
2018-12-29T22:45:08.229Z,4.20
2018-12-29T22:47:36.460Z,4.20
2018-12-29T22:50:04.984Z,4.20
2018-12-29T22:52:33.784Z,4.20
2018-12-29T22:55:02.097Z,4.30
2018-12-29T22:57:30.343Z,4.20
2018-12-29T22:59:58.635Z,4.30
2018-12-29T23:02:27.558Z,4.30
2018-12-29T23:04:56.297Z,4.30
2018-12-29T23:07:24.513Z,4.30
2018-12-29T23:09:52.939Z,4.30
2018-12-29T23:12:21.136Z,4.40
2018-12-29T23:14:50.246Z,4.30
2018-12-29T23:17:18.494Z,4.40
2018-12-29T23:19:46.734Z,4.40
2018-12-29T23:22:15.049Z,4.40
2018-12-29T23:24:43.254Z,4.40
2018-12-29T23:27:11.526Z,4.40
2018-12-29T23:29:39.762Z,4.40
2018-12-29T23:32:08.084Z,4.40
2018-12-29T23:34:36.989Z,4.40
2018-12-29T23:37:05.212Z,4.40
2018-12-29T23:39:34.510Z,4.40
2018-12-29T23:42:03.324Z,4.40
2018-12-29T23:44:31.558Z,4.40
2018-12-29T23:46:59.900Z,4.40
2018-12-29T23:49:28.213Z,4.40
2018-12-29T23:51:56.430Z,4.40
2018-12-29T23:54:24.668Z,4.50
2018-12-29T23:56:52.852Z,4.50
2018-12-29T23:59:21.069Z,4.50
